createdAt,value
2023-01-23T00:01:26.533Z,102909.91
2023-01-23T00:03:55.121Z,102916.03
2023-01-23T00:06:22.835Z,102914.25
2023-01-23T00:08:49.891Z,102916.88
2023-01-23T00:11:23.848Z,102901.91
2023-01-23T00:13:51.369Z,102905.34
2023-01-23T00:16:21.863Z,102908.91
2023-01-23T00:18:49.793Z,102902.72
2023-01-23T00:21:20.474Z,102916.69
2023-01-23T00:23:52.012Z,102907.00
2023-01-23T00:26:24.834Z,102915.88
2023-01-23T00:28:53.741Z,102915.81
2023-01-23T00:31:25.396Z,102915.69
2023-01-23T00:34:15.610Z,102911.34
2023-01-23T00:36:44.374Z,102910.44
2023-01-23T00:39:22.494Z,102903.38
2023-01-23T00:41:50.229Z,102922.56
2023-01-23T00:44:17.708Z,102912.06
2023-01-23T00:46:44.679Z,102911.16
2023-01-23T00:49:11.713Z,102919.13
2023-01-23T00:51:38.522Z,102908.63
2023-01-23T00:54:05.747Z,102912.97
2023-01-23T00:56:32.525Z,102909.53
2023-01-23T00:58:59.328Z,102913.88
2023-01-23T01:01:27.783Z,102912.97
2023-01-23T01:03:54.660Z,102914.78
2023-01-23T01:06:21.450Z,102915.53
2023-01-23T01:08:48.535Z,102915.53
2023-01-23T01:11:15.492Z,102916.34
2023-01-23T01:13:43.539Z,102918.06
2023-01-23T01:16:10.941Z,102920.59
2023-01-23T01:18:38.449Z,102926.84
2023-01-23T01:21:12.265Z,102933.09
2023-01-23T01:23:40.179Z,102934.91
2023-01-23T01:26:07.908Z,102933.09
2023-01-23T01:28:38.029Z,102938.34
2023-01-23T01:31:12.279Z,102941.97
2023-01-23T01:33:40.294Z,102934.91
2023-01-23T01:36:16.771Z,102942.13
2023-01-23T01:38:44.417Z,102941.16
2023-01-23T01:41:13.199Z,102957.84
2023-01-23T01:43:40.268Z,102954.31
2023-01-23T01:46:22.409Z,102964.97
2023-01-23T01:49:12.975Z,102961.34
2023-01-23T01:51:59.066Z,102964.81
2023-01-23T01:54:30.841Z,102971.84
2023-01-23T01:57:21.966Z,102971.84
2023-01-23T01:59:58.010Z,102973.66
2023-01-23T02:02:35.916Z,102977.09
2023-01-23T02:05:16.108Z,102971.84
2023-01-23T02:07:58.578Z,102973.59
2023-01-23T02:10:25.445Z,102978.75
2023-01-23T02:12:52.804Z,102976.03
2023-01-23T02:15:22.211Z,102977.75
2023-01-23T02:17:51.894Z,102973.34
2023-01-23T02:20:28.596Z,102982.19
2023-01-23T02:23:07.087Z,102982.19
2023-01-23T02:25:55.628Z,102982.09
2023-01-23T02:28:23.077Z,102977.69
2023-01-23T02:30:52.356Z,102978.59
2023-01-23T02:33:24.680Z,102975.13
2023-01-23T02:35:51.538Z,102982.09
2023-01-23T02:38:24.804Z,102994.53
2023-01-23T02:40:52.535Z,102980.38
2023-01-23T02:43:24.393Z,102997.03
2023-01-23T02:45:52.127Z,103000.59
2023-01-23T02:48:19.046Z,103001.38
2023-01-23T02:50:46.428Z,103005.03
2023-01-23T02:53:15.682Z,103005.94
2023-01-23T02:55:43.213Z,103005.94
2023-01-23T02:58:28.615Z,103008.63
2023-01-23T03:00:55.396Z,103009.47
2023-01-23T03:03:22.782Z,103007.75
2023-01-23T03:05:50.264Z,103008.63
2023-01-23T03:08:17.299Z,103005.19
2023-01-23T03:10:44.063Z,103008.63
2023-01-23T03:17:17.634Z,103009.28
2023-01-23T03:19:45.738Z,103010.13
2023-01-23T03:22:12.511Z,103008.47
2023-01-23T03:24:39.359Z,103012.09
2023-01-23T03:27:06.406Z,103017.53
2023-01-23T03:29:51.602Z,103020.25
2023-01-23T03:32:18.486Z,103021.06
2023-01-23T03:34:45.279Z,103018.50
2023-01-23T03:37:13.505Z,103014.16
2023-01-23T03:39:58.681Z,103019.50
2023-01-23T03:42:25.521Z,103024.75
2023-01-23T03:44:52.951Z,103013.34
2023-01-23T03:47:20.808Z,103018.69
2023-01-23T03:49:47.686Z,103016.06
2023-01-23T03:52:14.485Z,103006.28
2023-01-23T03:54:42.215Z,103012.44
2023-01-23T03:57:09.514Z,103015.97
2023-01-23T03:59:36.615Z,103010.63
2023-01-23T04:02:04.949Z,103012.28
2023-01-23T04:04:33.341Z,103014.91
2023-01-23T04:07:00.764Z,103017.53
2023-01-23T04:09:28.183Z,103015.69
2023-01-23T04:11:55.634Z,103011.34
2023-01-23T04:14:24.718Z,103015.69
2023-01-23T04:16:52.448Z,103017.53
2023-01-23T04:19:19.709Z,103015.69
2023-01-23T04:21:49.766Z,103016.59
2023-01-23T04:24:17.610Z,103015.81
2023-01-23T04:26:44.941Z,103024.59
2023-01-23T04:29:11.960Z,103021.13
2023-01-23T04:31:38.985Z,103028.19
2023-01-23T04:34:05.850Z,103030.94
2023-01-23T04:36:32.600Z,103037.91
2023-01-23T04:38:59.372Z,103036.09
2023-01-23T04:41:29.351Z,103031.84
2023-01-23T04:43:56.113Z,103039.72
2023-01-23T04:46:23.224Z,103022.13
2023-01-23T04:48:50.103Z,103034.38
2023-01-23T04:51:16.934Z,103027.38
2023-01-23T04:53:43.726Z,103017.69
2023-01-23T04:56:10.507Z,103035.28
2023-01-23T04:58:37.324Z,103031.63
2023-01-23T05:01:07.974Z,103024.59
2023-01-23T05:03:35.046Z,103028.94
2023-01-23T05:06:01.877Z,103029.66
2023-01-23T05:08:28.625Z,103029.66
2023-01-23T05:10:55.463Z,103032.28
2023-01-23T05:13:22.454Z,103038.53
2023-01-23T05:15:49.259Z,103041.97
2023-01-23T05:18:16.246Z,103033.28
2023-01-23T05:20:43.065Z,103030.56
2023-01-23T05:23:09.981Z,103031.41
2023-01-23T05:25:36.803Z,103040.78
2023-01-23T05:28:03.702Z,103036.38
2023-01-23T05:30:30.484Z,103045.97
2023-01-23T05:32:57.255Z,103035.38
2023-01-23T05:35:24.039Z,103043.25
2023-01-23T05:37:54.278Z,103043.25
2023-01-23T05:40:21.926Z,103042.25
2023-01-23T05:42:49.336Z,103038.75
2023-01-23T05:45:16.625Z,103052.75
2023-01-23T05:47:44.181Z,103040.47
2023-01-23T05:50:17.549Z,103045.72
2023-01-23T05:52:44.902Z,103046.63
2023-01-23T05:55:12.253Z,103059.00
2023-01-23T05:57:39.024Z,103058.09
2023-01-23T06:00:08.941Z,103065.19
2023-01-23T06:02:35.820Z,103074.94
2023-01-23T06:05:02.591Z,103077.69
2023-01-23T06:07:29.379Z,103075.16
2023-01-23T06:09:56.122Z,103089.28
2023-01-23T06:12:22.922Z,103089.38
2023-01-23T06:14:49.852Z,103086.75
2023-01-23T06:17:16.655Z,103085.03
2023-01-23T06:19:43.487Z,103090.28
2023-01-23T06:22:10.300Z,103094.53
2023-01-23T06:24:37.113Z,103098.06
2023-01-23T06:27:08.134Z,103103.31
2023-01-23T06:29:36.140Z,103101.59
2023-01-23T06:32:03.706Z,103113.94
2023-01-23T06:34:30.593Z,103106.84
2023-01-23T06:36:57.358Z,103110.28
2023-01-23T06:39:24.108Z,103113.72
2023-01-23T06:41:50.890Z,103120.72
2023-01-23T06:44:17.654Z,103123.25
2023-01-23T06:46:44.468Z,103119.63
2023-01-23T06:49:11.296Z,103130.97
2023-01-23T06:51:38.154Z,103130.97
2023-01-23T06:54:05.299Z,103141.38
2023-01-23T06:56:32.174Z,103150.16
2023-01-23T06:58:58.962Z,103151.06
2023-01-23T07:01:26.369Z,103157.22
2023-01-23T07:03:53.207Z,103156.31
2023-01-23T07:06:20.541Z,103153.59
2023-01-23T07:08:47.426Z,103160.47
2023-01-23T07:11:14.455Z,103163.09
2023-01-23T07:13:41.356Z,103171.81
2023-01-23T07:16:08.394Z,103166.56
2023-01-23T07:18:35.970Z,103169.19
2023-01-23T07:21:06.412Z,103167.47
2023-01-23T07:23:34.982Z,103168.34
2023-01-23T07:26:04.355Z,103169.19
2023-01-23T07:28:31.402Z,103184.94
2023-01-23T07:30:59.515Z,103190.38
2023-01-23T07:33:26.492Z,103193.00
2023-01-23T07:35:53.288Z,103200.25
2023-01-23T07:38:20.518Z,103197.63
2023-01-23T07:40:47.277Z,103197.63
2023-01-23T07:43:14.010Z,103202.88
2023-01-23T07:45:40.799Z,103201.06
2023-01-23T07:48:08.436Z,103203.69
2023-01-23T07:50:35.782Z,103190.53
2023-01-23T07:53:03.461Z,103196.72
2023-01-23T07:55:30.239Z,103205.41
2023-01-23T07:57:57.054Z,103203.63
2023-01-23T08:00:25.234Z,103200.88
2023-01-23T08:02:52.890Z,103206.13
2023-01-23T08:05:19.666Z,103211.38
2023-01-23T08:07:46.508Z,103213.22
2023-01-23T08:10:13.434Z,103210.59
2023-01-23T08:12:40.275Z,103209.78
2023-01-23T08:15:08.065Z,103214.19
2023-01-23T08:17:34.864Z,103196.63
2023-01-23T08:20:01.838Z,103202.88
2023-01-23T08:22:28.657Z,103208.13
2023-01-23T08:24:55.442Z,103216.94
2023-01-23T08:27:22.409Z,103206.53
2023-01-23T08:29:49.165Z,103208.31
2023-01-23T08:32:15.948Z,103213.56
2023-01-23T08:34:42.708Z,103213.56
2023-01-23T08:37:09.469Z,103213.50
2023-01-23T08:39:36.238Z,103208.31
2023-01-23T08:42:03.036Z,103220.66
2023-01-23T08:44:31.222Z,103214.69
2023-01-23T08:46:58.084Z,103215.56
2023-01-23T08:49:24.952Z,103221.03
2023-01-23T08:51:51.766Z,103224.63
2023-01-23T08:54:18.514Z,103224.63
2023-01-23T08:56:45.284Z,103222.84
2023-01-23T08:59:12.046Z,103215.78
2023-01-23T09:01:38.849Z,103214.88
2023-01-23T09:04:08.827Z,103215.78
2023-01-23T09:06:36.378Z,103224.63
2023-01-23T09:09:03.190Z,103233.53
2023-01-23T09:11:30.179Z,103237.16
2023-01-23T09:13:56.928Z,103242.63
2023-01-23T09:16:23.743Z,103239.19
2023-01-23T09:18:50.594Z,103240.97
2023-01-23T09:21:17.819Z,103243.69
2023-01-23T09:23:44.603Z,103248.97
2023-01-23T09:26:13.832Z,103250.06
2023-01-23T09:28:42.660Z,103251.75
2023-01-23T09:31:14.480Z,103236.09
2023-01-23T09:33:41.639Z,103254.50
2023-01-23T09:36:09.470Z,103260.66
2023-01-23T09:38:36.677Z,103260.56
2023-01-23T09:41:25.695Z,103267.47
2023-01-23T09:44:07.698Z,103262.22
2023-01-23T09:46:37.287Z,103268.38
2023-01-23T09:49:25.664Z,103273.53
2023-01-23T09:52:02.543Z,103281.41
2023-01-23T09:54:49.551Z,103276.16
2023-01-23T09:57:28.107Z,103275.34
2023-01-23T10:00:30.754Z,103276.25
2023-01-23T10:03:03.026Z,103280.69
2023-01-23T10:06:34.138Z,103276.25
2023-01-23T10:09:54.082Z,103276.97
2023-01-23T10:13:02.849Z,103286.50
2023-01-23T10:16:07.708Z,103284.66
2023-01-23T10:18:47.542Z,103294.44
2023-01-23T10:21:55.580Z,103293.75
2023-01-23T10:24:51.472Z,103290.50
2023-01-23T10:27:22.086Z,103285.22
2023-01-23T10:30:15.882Z,103282.78
2023-01-23T10:32:56.198Z,103281.88
2023-01-23T10:35:45.493Z,103300.28
2023-01-23T10:38:31.053Z,103289.66
2023-01-23T10:41:23.205Z,103295.81
2023-01-23T10:43:53.410Z,103288.66
2023-01-23T10:46:37.994Z,103286.16
2023-01-23T10:49:04.976Z,103289.75
2023-01-23T10:51:37.756Z,103289.88
2023-01-23T10:54:31.775Z,103297.75
2023-01-23T10:57:01.503Z,103301.00
2023-01-23T10:59:41.433Z,103291.41
2023-01-23T11:02:14.481Z,103286.22
2023-01-23T11:04:47.653Z,103287.22
2023-01-23T11:07:26.520Z,103282.16
2023-01-23T11:10:08.274Z,103287.59
2023-01-23T11:12:50.411Z,103277.28
2023-01-23T11:15:31.390Z,103275.63
2023-01-23T11:18:00.933Z,103285.34
2023-01-23T11:20:38.953Z,103277.63
2023-01-23T11:23:09.095Z,103284.72
2023-01-23T11:25:45.235Z,103267.22
2023-01-23T11:28:34.208Z,103270.03
2023-01-23T11:31:15.397Z,103266.69
2023-01-23T11:34:10.152Z,103264.97
2023-01-23T11:37:01.122Z,103261.44
2023-01-23T11:39:54.847Z,103256.06
2023-01-23T11:42:21.658Z,103259.59
2023-01-23T11:44:49.875Z,103255.38
2023-01-23T11:47:43.252Z,103255.44
2023-01-23T11:50:28.362Z,103250.97
2023-01-23T11:53:22.481Z,103253.53
2023-01-23T11:56:21.192Z,103259.72
2023-01-23T11:59:20.134Z,103257.88
2023-01-23T12:02:04.021Z,103263.16
2023-01-23T12:05:05.821Z,103262.22
2023-01-23T12:07:50.578Z,103264.06
2023-01-23T12:10:44.092Z,103257.09
2023-01-23T12:13:24.265Z,103253.53
2023-01-23T12:16:34.576Z,103251.72
2023-01-23T12:19:39.423Z,103240.41
2023-01-23T12:22:19.051Z,103250.16
2023-01-23T12:25:36.041Z,103249.47
2023-01-23T12:28:55.427Z,103249.38
2023-01-23T12:31:51.329Z,103244.00
2023-01-23T12:34:58.219Z,103244.91
2023-01-23T12:37:37.640Z,103245.81
2023-01-23T12:40:24.260Z,103241.56
2023-01-23T12:42:54.442Z,103247.00
2023-01-23T12:45:30.117Z,103238.47
2023-01-23T12:48:23.391Z,103257.16
2023-01-23T12:51:02.010Z,103254.63
2023-01-23T12:53:34.517Z,103252.91
2023-01-23T12:56:35.162Z,103251.91
2023-01-23T12:59:32.857Z,103245.94
2023-01-23T13:02:12.387Z,103256.63
2023-01-23T13:05:03.938Z,103251.38
2023-01-23T13:07:37.816Z,103258.44
2023-01-23T13:10:51.323Z,103254.28
2023-01-23T13:13:19.319Z,103255.19
2023-01-23T13:16:03.789Z,103248.09
2023-01-23T13:18:50.454Z,103251.25
2023-01-23T13:21:35.645Z,103254.63
2023-01-23T13:24:43.998Z,103246.75
2023-01-23T13:27:45.168Z,103257.34
2023-01-23T13:30:26.995Z,103255.63
2023-01-23T13:33:00.610Z,103259.38
2023-01-23T13:35:39.502Z,103261.16
2023-01-23T13:38:21.427Z,103259.53
2023-01-23T13:41:08.400Z,103259.53
2023-01-23T13:43:50.467Z,103270.06
2023-01-23T14:21:59.602Z,103310.84
2023-01-23T14:24:31.945Z,103303.81
2023-01-23T14:27:09.437Z,103309.06
2023-01-23T14:29:36.824Z,103304.63
2023-01-23T14:32:03.781Z,103301.97
2023-01-23T14:34:38.909Z,103301.97
2023-01-23T14:37:12.383Z,103301.97
2023-01-23T14:39:40.976Z,103303.59
2023-01-23T14:42:23.740Z,103303.59
2023-01-23T14:44:51.180Z,103314.13
2023-01-23T14:47:32.805Z,103309.78
2023-01-23T14:50:02.896Z,103304.34
2023-01-23T14:52:31.258Z,103307.78
2023-01-23T14:55:07.179Z,103305.94
2023-01-23T14:57:35.324Z,103304.22
2023-01-23T15:00:03.502Z,103308.69
2023-01-23T15:02:33.250Z,103301.72
2023-01-23T15:05:15.056Z,103301.78
2023-01-23T15:07:58.285Z,103303.59
2023-01-23T15:10:44.748Z,103307.13
2023-01-23T15:13:26.354Z,103308.97
2023-01-23T15:15:58.895Z,103301.78
2023-01-23T15:18:35.208Z,103307.94
2023-01-23T15:21:07.556Z,103298.28
2023-01-23T15:23:41.170Z,103289.47
2023-01-23T15:26:19.283Z,103279.75
2023-01-23T15:29:00.937Z,103292.09
2023-01-23T15:31:30.592Z,103291.25
2023-01-23T15:34:16.676Z,103282.38
2023-01-23T15:36:52.116Z,103280.56
2023-01-23T15:39:28.835Z,103290.91
2023-01-23T15:42:05.241Z,103296.16
2023-01-23T15:44:32.760Z,103294.34
2023-01-23T15:47:03.904Z,103288.97
2023-01-23T15:49:36.663Z,103292.53
2023-01-23T15:52:25.394Z,103296.16
2023-01-23T15:54:55.648Z,103294.19
2023-01-23T15:57:22.973Z,103314.38
2023-01-23T15:59:49.786Z,103301.22
2023-01-23T16:02:30.498Z,103296.81
2023-01-23T16:04:58.620Z,103299.22
2023-01-23T16:07:34.877Z,103299.22
2023-01-23T16:10:07.269Z,103299.22
2023-01-23T16:12:38.535Z,103300.94
2023-01-23T16:15:18.167Z,103302.69
2023-01-23T16:17:45.603Z,103293.78
2023-01-23T16:20:20.454Z,103292.88
2023-01-23T16:22:52.074Z,103284.09
2023-01-23T16:25:42.916Z,103283.28
2023-01-23T16:28:23.813Z,103279.66
2023-01-23T16:30:51.746Z,103290.88
2023-01-23T16:33:20.023Z,103291.78
2023-01-23T16:35:48.645Z,103285.63
2023-01-23T16:38:26.389Z,103288.34
2023-01-23T16:40:54.833Z,103285.63
2023-01-23T16:43:22.865Z,103286.53
2023-01-23T16:45:49.676Z,103298.88
2023-01-23T16:48:26.345Z,103304.13
2023-01-23T16:51:08.148Z,103297.22
2023-01-23T16:53:42.630Z,103302.59
2023-01-23T16:56:22.244Z,103297.22
2023-01-23T16:58:50.045Z,103295.44
2023-01-23T17:01:21.600Z,103302.59
2023-01-23T17:03:59.935Z,103299.97
2023-01-23T17:06:26.699Z,103299.97
2023-01-23T17:08:53.660Z,103309.56
2023-01-23T17:11:36.410Z,103304.31
2023-01-23T17:14:09.083Z,103310.38
2023-01-23T17:16:35.857Z,103309.41
2023-01-23T17:19:15.424Z,103309.41
2023-01-23T17:21:43.233Z,103309.41
2023-01-23T17:24:16.391Z,103313.84
2023-01-23T17:26:44.001Z,103318.28
2023-01-23T17:29:11.335Z,103325.34
2023-01-23T17:31:39.444Z,103315.63
2023-01-23T17:34:07.507Z,103321.75
2023-01-23T17:36:35.082Z,103327.06
2023-01-23T17:39:02.185Z,103324.38
2023-01-23T17:41:29.149Z,103325.34
2023-01-23T17:43:55.916Z,103327.16
2023-01-23T17:46:27.212Z,103320.09
2023-01-23T17:48:55.651Z,103321.81
2023-01-23T17:51:24.471Z,103323.53
2023-01-23T17:53:51.665Z,103327.00
2023-01-23T17:56:19.004Z,103327.00
2023-01-23T17:58:45.853Z,103334.88
2023-01-23T18:01:21.810Z,103330.59
2023-01-23T18:03:50.626Z,103333.13
2023-01-23T18:06:18.879Z,103328.78
2023-01-23T18:08:45.788Z,103327.00
2023-01-23T18:11:24.193Z,103329.69
2023-01-23T18:14:23.585Z,103342.78
2023-01-23T18:16:51.105Z,103330.44
2023-01-23T18:19:24.732Z,103330.44
2023-01-23T18:21:57.379Z,103333.88
2023-01-23T18:24:33.069Z,103328.59
2023-01-23T18:27:21.482Z,103338.22
2023-01-23T18:30:39.883Z,103344.22
2023-01-23T18:33:30.722Z,103336.22
2023-01-23T18:36:18.736Z,103337.13
2023-01-23T18:39:31.991Z,103344.00
2023-01-23T18:42:15.634Z,103336.94
2023-01-23T18:44:57.414Z,103339.47
2023-01-23T18:47:26.321Z,103348.16
2023-01-23T18:49:53.493Z,103344.72
2023-01-23T18:52:46.153Z,103344.00
2023-01-23T18:55:39.769Z,103336.94
2023-01-23T18:58:43.193Z,103333.31
2023-01-23T19:01:40.803Z,103331.47
2023-01-23T19:04:16.327Z,103342.78
2023-01-23T19:06:44.618Z,103342.72
2023-01-23T19:09:21.120Z,103343.63
2023-01-23T19:12:25.406Z,103351.53
2023-01-23T19:15:20.922Z,103360.09
2023-01-23T19:17:59.603Z,103363.66
2023-01-23T19:20:53.333Z,103368.09
2023-01-23T19:24:02.222Z,103361.03
2023-01-23T19:26:35.562Z,103375.19
2023-01-23T19:29:20.084Z,103372.56
2023-01-23T19:32:03.499Z,103370.00
2023-01-23T19:34:30.785Z,103364.03
2023-01-23T19:36:57.595Z,103369.38
2023-01-23T19:39:24.381Z,103379.00
2023-01-23T19:41:51.867Z,103374.63
2023-01-23T19:44:22.290Z,103375.66
2023-01-23T19:46:49.118Z,103381.03
2023-01-23T19:49:15.954Z,103382.81
2023-01-23T19:51:43.222Z,103379.38
2023-01-23T19:54:12.614Z,103377.53
2023-01-23T19:56:40.187Z,103379.38
2023-01-23T19:59:07.438Z,103380.19
2023-01-23T20:01:45.557Z,103372.28
2023-01-23T20:04:20.675Z,103377.53
2023-01-23T20:06:51.787Z,103368.69
2023-01-23T20:09:19.253Z,103375.75
2023-01-23T20:11:46.851Z,103395.97
2023-01-23T20:14:13.971Z,103390.63
2023-01-23T20:16:43.010Z,103400.22
2023-01-23T20:19:14.315Z,103409.72
2023-01-23T20:21:41.203Z,103394.78
2023-01-23T20:24:08.419Z,103407.09
2023-01-23T20:26:36.036Z,103395.66
2023-01-23T20:29:03.945Z,103400.06
2023-01-23T20:31:32.748Z,103397.50
2023-01-23T20:33:59.725Z,103398.41
2023-01-23T20:36:26.570Z,103395.88
2023-01-23T20:38:53.929Z,103398.41
2023-01-23T20:41:21.585Z,103396.59
2023-01-23T20:43:48.764Z,103400.94
2023-01-23T20:46:18.963Z,103395.66
2023-01-23T20:48:46.002Z,103382.63
2023-01-23T20:51:16.560Z,103386.97
2023-01-23T20:53:44.115Z,103386.97
2023-01-23T20:56:18.887Z,103382.63
2023-01-23T20:59:07.214Z,103374.63
2023-01-23T21:01:55.885Z,103377.19
2023-01-23T21:04:25.367Z,103374.34
2023-01-23T21:06:52.735Z,103386.63
2023-01-23T21:09:19.939Z,103375.19
2023-01-23T21:11:46.776Z,103380.44
2023-01-23T21:14:13.852Z,103390.06
2023-01-23T21:16:40.750Z,103381.25
2023-01-23T21:19:07.613Z,103387.41
2023-01-23T21:21:34.993Z,103386.50
2023-01-23T21:24:01.907Z,103388.22
2023-01-23T21:26:29.192Z,103386.63
2023-01-23T21:28:57.601Z,103381.25
2023-01-23T21:31:29.265Z,103395.38
2023-01-23T21:34:00.324Z,103383.88
2023-01-23T21:36:28.075Z,103394.41
2023-01-23T21:38:55.451Z,103393.38
2023-01-23T21:41:22.689Z,103383.69
2023-01-23T21:43:49.557Z,103385.47
2023-01-23T21:46:16.529Z,103392.47
2023-01-23T21:48:43.415Z,103399.53
2023-01-23T21:51:16.672Z,103393.47
2023-01-23T21:53:46.236Z,103396.91
2023-01-23T21:56:16.033Z,103395.09
2023-01-23T21:58:43.599Z,103406.50
2023-01-23T22:01:33.503Z,103398.75
2023-01-23T22:04:10.656Z,103399.47
2023-01-23T22:06:40.738Z,103395.81
2023-01-23T22:09:09.221Z,103401.06
2023-01-23T22:11:36.778Z,103388.75
2023-01-23T22:14:04.589Z,103392.16
2023-01-23T22:16:47.479Z,103400.06
2023-01-23T22:19:18.952Z,103397.44
2023-01-23T22:21:46.540Z,103402.69
2023-01-23T22:24:14.397Z,103404.50
2023-01-23T22:26:41.175Z,103404.50
2023-01-23T22:29:08.593Z,103400.91
2023-01-23T22:31:35.556Z,103399.97
2023-01-23T22:34:02.500Z,103399.97
2023-01-23T22:36:29.308Z,103404.31
2023-01-23T22:38:56.275Z,103404.31
2023-01-23T22:41:23.772Z,103410.50
2023-01-23T22:43:55.322Z,103410.50
2023-01-23T22:46:23.371Z,103406.16
2023-01-23T22:48:50.800Z,103407.94
2023-01-23T22:51:24.622Z,103406.16
2023-01-23T22:53:56.166Z,103406.16
2023-01-23T22:56:24.739Z,103405.25
2023-01-23T22:58:54.272Z,103404.31
2023-01-23T23:01:24.725Z,103401.59
2023-01-23T23:03:52.083Z,103406.03
2023-01-23T23:06:19.987Z,103412.09
2023-01-23T23:08:48.101Z,103417.47
2023-01-23T23:11:21.254Z,103414.84
2023-01-23T23:13:48.223Z,103412.22
2023-01-23T23:16:24.673Z,103411.41
2023-01-23T23:18:54.398Z,103420.00
2023-01-23T23:21:25.478Z,103413.00
2023-01-23T23:23:57.740Z,103418.28
2023-01-23T23:26:26.600Z,103422.63
2023-01-23T23:28:54.577Z,103424.56
2023-01-23T23:31:21.533Z,103418.28
2023-01-23T23:33:48.399Z,103408.56
2023-01-23T23:36:15.238Z,103410.31
2023-01-23T23:38:42.074Z,103407.56
2023-01-23T23:41:13.780Z,103410.38
2023-01-23T23:43:40.683Z,103406.84
2023-01-23T23:46:08.579Z,103411.31
2023-01-23T23:48:37.562Z,103405.25
2023-01-23T23:51:07.611Z,103402.50
2023-01-23T23:53:35.695Z,103407.75
2023-01-23T23:56:03.902Z,103405.94
2023-01-23T23:58:30.684Z,103391.81
